TimeMST,TemperatureF,Dew PointF,Humidity,Sea Level PressureIn,VisibilityMPH,Wind Direction,Wind SpeedMPH,Gust SpeedMPH,PrecipitationIn,Events,Conditions,WindDirDegrees,DateUTC
12:53 AM,10.9,8.1,88,30.24,9.0,East,6.9,-,N/A,,Clear,80,2014-03-08 07:53:00
1:53 AM,9.0,6.1,88,30.23,8.0,East,5.8,-,N/A,,Clear,90,2014-03-08 08:53:00
2:53 AM,10.0,6.1,84,30.21,9.0,ESE,4.6,-,N/A,,Clear,110,2014-03-08 09:53:00
3:53 AM,9.0,5.0,84,30.18,9.0,ESE,3.5,-,N/A,,Clear,120,2014-03-08 10:53:00
4:53 AM,8.1,5.0,87,30.18,9.0,WSW,3.5,-,N/A,,Clear,240,2014-03-08 11:53:00
5:53 AM,7.0,3.0,84,30.19,10.0,West,4.6,-,N/A,,Clear,280,2014-03-08 12:53:00
6:53 AM,19.0,15.1,85,30.17,10.0,WSW,11.5,-,N/A,,Clear,250,2014-03-08 13:53:00
7:53 AM,25.0,21.0,85,30.16,10.0,WSW,9.2,-,N/A,,Clear,250,2014-03-08 14:53:00
8:53 AM,34.0,26.1,73,30.12,10.0,SW,18.4,-,N/A,,Clear,220,2014-03-08 15:53:00
9:53 AM,39.0,28.0,65,30.09,10.0,SW,21.9,31.1,N/A,,Clear,220,2014-03-08 16:53:00
10:53 AM,41.0,28.0,60,30.07,10.0,SW,21.9,32.2,N/A,,Clear,220,2014-03-08 17:53:00
11:53 AM,44.1,28.9,55,30.04,10.0,SW,24.2,33.4,N/A,,Clear,220,2014-03-08 18:53:00
12:53 PM,46.9,30.0,52,29.99,10.0,SW,26.5,33.4,N/A,,Clear,220,2014-03-08 19:53:00
1:53 PM,46.0,30.0,54,29.99,10.0,WSW,12.7,21.9,N/A,,Clear,240,2014-03-08 20:53:00
2:53 PM,45.0,30.0,56,29.96,10.0,West,8.1,-,N/A,,Clear,270,2014-03-08 21:53:00
3:53 PM,44.1,28.0,53,29.94,10.0,SW,21.9,26.5,N/A,,Clear,230,2014-03-08 22:53:00
4:53 PM,45.0,28.0,52,29.89,10.0,SSW,33.4,40.3,N/A,,Mostly Cloudy,210,2014-03-08 23:53:00
5:53 PM,44.1,28.9,55,29.91,10.0,SSW,18.4,-,N/A,,Mostly Cloudy,210,2014-03-09 00:53:00
6:53 PM,43.0,28.9,58,29.88,10.0,SW,15.0,-,N/A,,Mostly Cloudy,220,2014-03-09 01:53:00
7:53 PM,42.1,28.9,60,29.84,10.0,SW,15.0,-,N/A,,Clear,230,2014-03-09 02:53:00
8:53 PM,42.1,28.9,60,29.81,10.0,SW,19.6,-,N/A,,Clear,220,2014-03-09 03:53:00
9:53 PM,42.1,28.9,60,29.80,10.0,SW,16.1,-,N/A,,Clear,230,2014-03-09 04:53:00
10:53 PM,44.1,28.0,53,29.78,10.0,SW,17.3,-,N/A,,Clear,230,2014-03-09 05:53:00
11:53 PM,42.1,28.9,60,29.76,10.0,WSW,15.0,-,N/A,,Mostly Cloudy,240,2014-03-09 06:53:00